Friday Harbor, Washington
Current Conditions -  °F | °C
As of 10:53 PM on Friday 19 Dec 2014 (Local Time) from KFHR Reporting Station
Overcast Overcast  
Wind Chill: 42°   Ceiling: 8000
Heat Index: 49°   Visibility: 10mi
Dew Point: 41°   Wind: 18mph
Humidity: 74%   Direction: 140°SE
Pressure: 29.83"   Gusts: 26mph
Location:  48.53°N, 123.02°W
Report Text: KFHR 200653Z AUTO 14016G23KT 10SM FEW025 OVC080 09/05 A2983 RMK AO2 SLP100 T00940050
Loading
Personal Weather Stations






























Interactive Weather Map New forecast layout! Learn more

10-Day Weather Forecast

Advertisements
Track Severe Weather on mobile